Terminal Aerodrome Forecast
Issued by NWS Wilmington, OH

Current Version | Previous Version | Text Only | Print | Product List | Glossary Off
Versions: 1 2 3 4 5 6 7 8 9 10 11 12 13 14 15 16 17

157
FTUS41 KILN 100321 AAA
TAFCMH
TAF AMD
KCMH 100321Z 1003/1024 26014KT P6SM -SHSN BKN018 OVC040
     FM100500 27011KT P6SM -SHSN OVC040
     FM101300 27014KT 1SM -SHSN SCT007 OVC015
     FM101700 28016G23KT 4SM -SHSN OVC022
     FM102000 28016G23KT P6SM -SHSN OVC025=

USA.gov is the U.S. government's official web portal to all federal, state and local government web resources and services.